Time;durP1;ratioP1;P1;durP2;ratioP2;P2;SDS_P1;SDS_P2;PMS_P1;PMS_P2;Temp;Humidity;BMP_temperature;BMP_pressure;BME280_temperature;BME280_humidity;BME280_pressure;Samples;Min_cycle;Max_cycle;Signal;HPM_P1;HPM_P2
2023/03/10 00:00:43;;;;;;;4.10;1.40;;;8.80;99.90;;;;;;5023623;28;20199;-81
2023/03/10 00:03:08;;;;;;;3.77;1.80;;;8.80;99.90;;;;;;5023407;28;20219;-82
2023/03/10 00:05:35;;;;;;;7.83;2.00;;;8.80;99.90;;;;;;5023803;28;20199;-81
2023/03/10 00:08:01;;;;;;;6.27;1.87;;;8.80;99.90;;;;;;5017563;28;20709;-80
2023/03/10 00:10:27;;;;;;;4.57;1.60;;;8.80;99.90;;;;;;5014263;28;20174;-81
2023/03/10 00:12:52;;;;;;;5.73;1.83;;;8.80;99.90;;;;;;5024792;28;20230;-81
2023/03/10 00:15:18;;;;;;;3.80;1.60;;;8.80;99.90;;;;;;5039063;28;20181;-81
2023/03/10 00:17:44;;;;;;;4.10;1.70;;;8.80;99.90;;;;;;5039706;28;20191;-81
2023/03/10 00:20:11;;;;;;;4.83;1.40;;;8.90;99.90;;;;;;5032122;28;20203;-82
2023/03/10 00:22:38;;;;;;;7.20;2.00;;;9.00;99.90;;;;;;5031840;28;20221;-81
2023/03/10 00:25:05;;;;;;;4.73;1.53;;;9.10;99.90;;;;;;5039760;28;20647;-81
2023/03/10 00:27:32;;;;;;;4.93;1.50;;;9.10;99.90;;;;;;5039759;28;20235;-81
2023/03/10 00:29:57;;;;;;;5.57;1.80;;;9.00;99.90;;;;;;5041127;28;20200;-81
2023/03/10 00:32:23;;;;;;;3.93;1.50;;;9.00;99.90;;;;;;5040343;28;20230;-81
2023/03/10 00:34:48;;;;;;;3.63;1.40;;;8.90;99.90;;;;;;5039729;28;20565;-81
2023/03/10 00:37:14;;;;;;;4.37;1.63;;;9.00;99.90;;;;;;5040831;28;20181;-81
2023/03/10 00:39:40;;;;;;;4.63;1.60;;;9.00;99.90;;;;;;5039405;28;20230;-81
2023/03/10 00:42:06;;;;;;;7.03;1.60;;;9.10;99.90;;;;;;5039650;28;20197;-81
2023/03/10 00:44:32;;;;;;;4.27;1.60;;;9.10;99.90;;;;;;5041152;28;20174;-81
2023/03/10 00:46:58;;;;;;;4.93;1.90;;;9.10;99.90;;;;;;5043332;28;20173;-81
2023/03/10 00:49:23;;;;;;;7.13;1.67;;;9.00;99.90;;;;;;5043241;28;20207;-80
2023/03/10 00:51:49;;;;;;;6.57;1.60;;;9.00;99.90;;;;;;5041189;28;20288;-81
2023/03/10 00:54:14;;;;;;;3.00;1.73;;;8.90;99.90;;;;;;5041481;28;20202;-81
2023/03/10 00:56:40;;;;;;;3.93;1.80;;;8.80;99.90;;;;;;5041207;28;20180;-81
2023/03/10 00:59:06;;;;;;;3.83;1.40;;;8.80;99.90;;;;;;5041521;28;20229;-81
2023/03/10 01:01:38;;;;;;;4.40;1.70;;;8.80;99.90;;;;;;5041596;28;20202;-81
2023/03/10 01:04:07;;;;;;;4.87;1.63;;;8.80;99.90;;;;;;5042552;28;20179;-81
2023/03/10 01:06:34;;;;;;;5.43;1.80;;;8.70;99.90;;;;;;5041845;28;20251;-81
2023/03/10 01:09:00;;;;;;;5.10;1.73;;;8.70;99.90;;;;;;5041388;28;20175;-81
2023/03/10 01:11:29;;;;;;;2.67;1.43;;;8.70;99.90;;;;;;5040810;28;20273;-81
2023/03/10 01:14:00;;;;;;;4.23;1.60;;;8.80;99.90;;;;;;5024494;28;20179;-81
2023/03/10 01:16:27;;;;;;;3.60;1.30;;;8.80;99.90;;;;;;5024197;28;20212;-81
2023/03/10 01:18:53;;;;;;;2.17;1.27;;;8.80;99.90;;;;;;5024324;28;20176;-81
2023/03/10 01:21:22;;;;;;;3.97;1.60;;;8.80;99.90;;;;;;5024690;28;20286;-81
2023/03/10 01:23:48;;;;;;;3.80;1.37;;;8.70;99.90;;;;;;5024769;28;20219;-81
2023/03/10 01:26:13;;;;;;;3.00;1.30;;;8.70;99.90;;;;;;5024408;28;20180;-81
2023/03/10 01:28:39;;;;;;;3.30;1.30;;;8.70;99.90;;;;;;5042247;28;20230;-81
2023/03/10 01:31:06;;;;;;;4.33;1.60;;;8.70;99.90;;;;;;5042184;28;20286;-81
2023/03/10 01:33:34;;;;;;;2.93;1.40;;;8.70;99.90;;;;;;5041839;28;20213;-81
2023/03/10 01:36:00;;;;;;;2.17;1.20;;;8.70;99.90;;;;;;5024068;28;20183;-81
2023/03/10 01:38:25;;;;;;;2.40;1.30;;;8.60;99.90;;;;;;5041107;28;20176;-81
2023/03/10 01:40:51;;;;;;;3.57;1.50;;;8.60;99.90;;;;;;5040934;28;20690;-81
2023/03/10 01:43:20;;;;;;;4.23;1.40;;;8.60;99.90;;;;;;5024183;28;20215;-81
2023/03/10 01:45:46;;;;;;;1.67;1.10;;;8.60;99.90;;;;;;5023799;28;20196;-81
2023/03/10 01:48:13;;;;;;;3.40;1.07;;;8.60;99.90;;;;;;5024591;28;20181;-81
2023/03/10 01:50:40;;;;;;;2.00;1.30;;;8.70;99.90;;;;;;5023592;28;20183;-81
2023/03/10 01:53:06;;;;;;;3.53;1.07;;;8.70;99.90;;;;;;5023728;28;20583;-82
2023/03/10 01:55:40;;;;;;;4.70;1.27;;;8.80;99.90;;;;;;5023307;28;20179;-82
2023/03/10 01:58:08;;;;;;;1.63;1.03;;;8.80;99.90;;;;;;5023859;28;20182;-81
2023/03/10 02:00:35;;;;;;;2.13;1.00;;;8.80;99.90;;;;;;5024046;28;20657;-81
2023/03/10 02:03:11;;;;;;;2.13;1.00;;;8.80;99.90;;;;;;5041357;28;20195;-81
2023/03/10 02:05:47;;;;;;;1.40;1.00;;;8.80;99.90;;;;;;5025040;28;20179;-81
2023/03/10 02:08:14;;;;;;;2.37;1.10;;;8.90;99.90;;;;;;5023972;28;20239;-81
2023/03/10 02:10:39;;;;;;;3.00;1.20;;;8.90;99.90;;;;;;5041592;28;20181;-81
2023/03/10 02:13:05;;;;;;;1.57;1.10;;;8.90;99.90;;;;;;5034335;28;20224;-81
2023/03/10 02:15:32;;;;;;;2.00;1.00;;;8.80;99.90;;;;;;5041441;28;20203;-81
2023/03/10 02:18:00;;;;;;;2.33;1.00;;;8.80;99.90;;;;;;5040699;28;20178;-81
2023/03/10 02:20:37;;;;;;;2.70;1.30;;;8.80;99.90;;;;;;5040261;28;20242;-81
2023/03/10 02:23:02;;;;;;;1.43;1.00;;;8.80;99.90;;;;;;5040766;28;20259;-81
2023/03/10 02:25:33;;;;;;;2.07;1.07;;;8.80;99.90;;;;;;5041225;28;20206;-81
2023/03/10 02:27:59;;;;;;;2.53;1.30;;;8.80;99.90;;;;;;5041486;28;20171;-81
2023/03/10 02:30:51;;;;;;;1.83;1.23;;;8.80;99.90;;;;;;5040759;28;20192;-81
2023/03/10 02:33:29;;;;;;;4.37;1.50;;;8.70;99.90;;;;;;5036197;28;20220;-81
2023/03/10 02:36:02;;;;;;;2.27;1.10;;;8.70;99.90;;;;;;5041394;28;20271;-81
2023/03/10 02:38:28;;;;;;;3.13;1.20;;;8.70;99.90;;;;;;5040990;28;20177;-81
2023/03/10 02:40:54;;;;;;;1.43;1.20;;;8.70;99.90;;;;;;5039555;28;20208;-81
2023/03/10 02:43:32;;;;;;;2.20;1.17;;;8.70;99.90;;;;;;5040663;28;20193;-81
2023/03/10 02:46:00;;;;;;;2.07;1.43;;;8.70;99.90;;;;;;5039571;28;20195;-81
2023/03/10 02:48:30;;;;;;;1.73;1.20;;;8.70;99.90;;;;;;5037391;28;20262;-81
2023/03/10 02:50:57;;;;;;;3.07;1.30;;;8.70;99.90;;;;;;5029314;28;20191;-81
2023/03/10 02:53:25;;;;;;;2.60;1.10;;;8.60;99.90;;;;;;5038023;28;20209;-81
2023/03/10 02:55:52;;;;;;;2.73;1.17;;;8.70;99.90;;;;;;5040450;28;20551;-82
2023/03/10 02:58:18;;;;;;;4.47;1.57;;;8.70;99.90;;;;;;5040108;28;20184;-82
2023/03/10 03:00:46;;;;;;;1.63;1.43;;;8.70;99.90;;;;;;5039765;28;20204;-81
2023/03/10 03:03:15;;;;;;;2.83;1.23;;;8.60;99.90;;;;;;5039012;28;20200;-81
2023/03/10 03:05:40;;;;;;;1.20;0.93;;;8.60;99.90;;;;;;5039540;28;20555;-81
2023/03/10 03:08:07;;;;;;;1.57;1.10;;;8.70;99.90;;;;;;5040908;28;20718;-81
2023/03/10 03:10:34;;;;;;;1.63;1.20;;;8.60;99.90;;;;;;5039251;28;20179;-81
2023/03/10 03:13:00;;;;;;;1.50;1.20;;;8.50;99.90;;;;;;5039397;28;20219;-81
2023/03/10 03:15:26;;;;;;;1.90;1.20;;;8.50;99.90;;;;;;5039056;28;20184;-82
2023/03/10 03:17:57;;;;;;;2.40;1.20;;;8.60;99.90;;;;;;5040458;28;20189;-82
2023/03/10 03:20:23;;;;;;;1.67;1.20;;;8.50;99.90;;;;;;5039618;28;20203;-81
2023/03/10 03:22:49;;;;;;;2.03;1.10;;;8.60;99.90;;;;;;5040800;28;20248;-81
2023/03/10 03:25:17;;;;;;;1.77;1.20;;;8.60;99.90;;;;;;5039847;28;20183;-81
2023/03/10 03:27:44;;;;;;;1.73;0.90;;;8.60;99.90;;;;;;5041964;28;20239;-81
2023/03/10 03:30:13;;;;;;;1.50;1.10;;;8.60;99.90;;;;;;5040040;28;20179;-81
2023/03/10 03:32:39;;;;;;;2.23;1.27;;;8.70;99.90;;;;;;5039983;28;20215;-81
2023/03/10 03:35:10;;;;;;;1.80;1.30;;;8.60;99.90;;;;;;5039843;28;20202;-81
2023/03/10 03:37:36;;;;;;;1.97;1.10;;;8.50;99.90;;;;;;5039803;28;20554;-81
2023/03/10 03:40:06;;;;;;;1.77;1.20;;;8.60;99.90;;;;;;5040451;28;20289;-81
2023/03/10 03:42:31;;;;;;;2.03;1.10;;;8.50;99.90;;;;;;5040878;28;20190;-81
2023/03/10 03:44:57;;;;;;;1.30;1.20;;;8.50;99.90;;;;;;5039995;28;20225;-81
2023/03/10 03:47:22;;;;;;;1.40;1.20;;;8.50;99.90;;;;;;5039862;28;20172;-81
2023/03/10 03:49:48;;;;;;;1.53;1.00;;;8.50;99.90;;;;;;5039847;28;20182;-81
2023/03/10 03:52:14;;;;;;;1.40;1.30;;;8.60;99.90;;;;;;5039081;28;20234;-81
2023/03/10 03:54:39;;;;;;;1.33;1.20;;;8.50;99.90;;;;;;5039862;28;20270;-81
2023/03/10 03:57:05;;;;;;;2.13;1.20;;;8.50;99.90;;;;;;5038803;28;20184;-81
2023/03/10 03:59:30;;;;;;;2.20;1.40;;;8.50;99.90;;;;;;5039624;28;20171;-81
2023/03/10 04:01:56;;;;;;;1.37;1.27;;;8.50;99.90;;;;;;5034002;28;20624;-81
2023/03/10 04:04:21;;;;;;;1.60;1.20;;;8.40;99.90;;;;;;5028947;28;20194;-81
2023/03/10 04:06:47;;;;;;;2.97;1.20;;;8.40;99.90;;;;;;5030505;28;20194;-81
2023/03/10 04:09:12;;;;;;;1.27;1.17;;;8.40;99.90;;;;;;5039563;28;20266;-81
2023/03/10 04:11:38;;;;;;;1.73;1.10;;;8.40;99.90;;;;;;5039490;28;20182;-81
2023/03/10 04:14:04;;;;;;;1.83;1.20;;;8.40;99.90;;;;;;5040369;28;20178;-81
2023/03/10 04:16:29;;;;;;;1.53;1.10;;;8.40;99.90;;;;;;5022473;28;20183;-81
2023/03/10 04:18:55;;;;;;;2.30;1.40;;;8.50;99.90;;;;;;5041211;28;20238;-82
2023/03/10 04:21:20;;;;;;;1.20;1.10;;;8.50;99.90;;;;;;5025821;28;20215;-81
2023/03/10 04:23:46;;;;;;;1.20;1.10;;;8.50;99.90;;;;;;5016678;28;20204;-81
2023/03/10 04:26:12;;;;;;;1.30;1.20;;;8.50;99.90;;;;;;5040387;28;20172;-81
2023/03/10 04:28:37;;;;;;;2.40;1.43;;;8.50;99.90;;;;;;5043886;28;20187;-81
2023/03/10 04:31:03;;;;;;;1.60;1.20;;;8.40;99.90;;;;;;5026176;28;20179;-82
2023/03/10 04:33:29;;;;;;;1.20;1.00;;;8.40;99.90;;;;;;5026064;28;20237;-81
2023/03/10 04:35:55;;;;;;;2.57;1.37;;;8.40;99.90;;;;;;5026234;28;20177;-81
2023/03/10 04:38:24;;;;;;;1.43;1.27;;;8.40;99.90;;;;;;5026171;28;20175;-81
2023/03/10 04:40:57;;;;;;;2.27;1.20;;;8.40;99.90;;;;;;5020046;28;20198;-81
2023/03/10 04:43:23;;;;;;;2.30;1.70;;;8.40;99.90;;;;;;5013963;28;20203;-80
2023/03/10 04:45:48;;;;;;;1.20;1.10;;;8.40;99.90;;;;;;5005619;28;20214;-81
2023/03/10 04:48:14;;;;;;;2.00;1.13;;;8.30;99.90;;;;;;5023534;28;20187;-82
2023/03/10 04:50:40;;;;;;;1.50;1.40;;;8.30;99.90;;;;;;5023563;28;20175;-81
2023/03/10 04:53:06;;;;;;;1.93;1.27;;;8.30;99.90;;;;;;5005813;28;20200;-81
2023/03/10 04:55:31;;;;;;;1.10;1.00;;;8.30;99.90;;;;;;5023399;28;20183;-81
2023/03/10 04:57:57;;;;;;;1.30;1.20;;;8.30;99.90;;;;;;5005949;28;20186;-81
2023/03/10 05:00:23;;;;;;;1.57;1.10;;;8.30;99.90;;;;;;5006414;28;20260;-82
2023/03/10 05:02:49;;;;;;;1.30;1.20;;;8.30;99.90;;;;;;5023908;28;20208;-82
2023/03/10 05:05:15;;;;;;;1.30;1.20;;;8.30;99.90;;;;;;5007668;28;20180;-82
2023/03/10 05:07:40;;;;;;;2.93;1.63;;;8.30;99.90;;;;;;5007086;28;20214;-81
2023/03/10 05:10:07;;;;;;;2.73;1.37;;;8.30;99.90;;;;;;5006756;28;20186;-81
2023/03/10 05:12:33;;;;;;;2.60;1.37;;;8.40;99.90;;;;;;5042112;22;20227;-81
2023/03/10 05:14:58;;;;;;;1.53;1.43;;;8.40;99.90;;;;;;5041550;28;20262;-81
2023/03/10 05:17:27;;;;;;;1.83;1.40;;;8.40;99.90;;;;;;5043084;28;20184;-80
2023/03/10 05:19:53;;;;;;;1.53;1.30;;;8.40;99.90;;;;;;5040421;28;20675;-81
2023/03/10 05:22:19;;;;;;;2.47;1.40;;;8.50;99.90;;;;;;5040172;28;20202;-80
2023/03/10 05:24:46;;;;;;;1.23;1.10;;;8.50;99.90;;;;;;5041431;28;20175;-81
2023/03/10 05:27:13;;;;;;;2.03;1.37;;;8.50;99.90;;;;;;5039811;28;20175;-81
2023/03/10 05:29:39;;;;;;;1.83;1.20;;;8.50;99.90;;;;;;5038625;28;20178;-81
2023/03/10 05:32:05;;;;;;;1.80;1.30;;;8.40;99.90;;;;;;5038551;28;20179;-81
2023/03/10 05:34:32;;;;;;;1.83;1.70;;;8.40;99.90;;;;;;5039688;28;20240;-81
2023/03/10 05:36:57;;;;;;;2.33;1.70;;;8.40;99.90;;;;;;5039014;28;20178;-82
2023/03/10 05:39:23;;;;;;;3.57;1.60;;;8.50;99.90;;;;;;5036319;28;20232;-77
2023/03/10 05:41:48;;;;;;;1.57;1.30;;;8.40;99.90;;;;;;5034246;28;20175;-81
2023/03/10 05:44:14;;;;;;;2.27;1.57;;;8.50;99.90;;;;;;5034793;28;20244;-81
2023/03/10 05:46:40;;;;;;;4.13;1.57;;;8.40;99.90;;;;;;5035796;28;20221;-80
2023/03/10 05:49:05;;;;;;;3.60;1.60;;;8.50;99.90;;;;;;5042634;28;20174;-80
2023/03/10 05:51:31;;;;;;;2.43;1.40;;;8.50;99.90;;;;;;5055554;28;20170;-81
2023/03/10 05:53:57;;;;;;;2.53;1.40;;;8.50;99.90;;;;;;5049514;28;20228;-85
2023/03/10 05:56:22;;;;;;;4.93;1.50;;;8.50;99.90;;;;;;5047584;28;20271;-82
2023/03/10 05:58:49;;;;;;;1.50;1.30;;;8.60;99.90;;;;;;5054961;28;20181;-83
2023/03/10 06:01:16;;;;;;;2.10;1.60;;;8.60;99.90;;;;;;5053994;28;20789;-82
2023/03/10 06:03:43;;;;;;;3.07;1.50;;;8.60;99.90;;;;;;5053486;28;20194;-81
2023/03/10 06:06:10;;;;;;;2.17;1.30;;;8.60;99.90;;;;;;5056066;28;20171;-83
2023/03/10 06:08:36;;;;;;;2.53;1.50;;;8.60;99.90;;;;;;5054398;28;20558;-82
2023/03/10 06:11:03;;;;;;;2.97;1.40;;;8.60;99.90;;;;;;5054144;28;20267;-83
2023/03/10 06:13:30;;;;;;;3.10;1.37;;;8.60;99.90;;;;;;5055016;28;20635;-82
2023/03/10 06:15:58;;;;;;;2.17;1.20;;;8.60;99.90;;;;;;5054836;28;20172;-84
2023/03/10 06:18:24;;;;;;;2.23;1.30;;;8.60;99.90;;;;;;5055988;28;20283;-82
2023/03/10 06:20:52;;;;;;;4.20;1.70;;;8.60;99.90;;;;;;5054287;28;20245;-83
2023/03/10 06:23:18;;;;;;;3.43;2.00;;;8.60;99.90;;;;;;5053333;28;20195;-84
2023/03/10 06:26:05;;;;;;;3.43;1.47;;;8.60;99.90;;;;;;5053741;28;20183;-83
2023/03/10 06:28:34;;;;;;;2.97;1.30;;;8.60;99.90;;;;;;5055097;28;20174;-83
2023/03/10 06:31:02;;;;;;;4.87;1.33;;;8.60;99.90;;;;;;5054900;28;20230;-83
2023/03/10 06:33:28;;;;;;;5.27;1.70;;;8.70;99.90;;;;;;5054997;28;20209;-84
2023/03/10 06:35:54;;;;;;;5.07;1.50;;;8.70;99.90;;;;;;5056240;28;20174;-79
2023/03/10 06:38:20;;;;;;;4.97;1.37;;;8.70;99.90;;;;;;5058998;28;20184;-80
2023/03/10 06:40:46;;;;;;;3.47;1.60;;;8.80;99.90;;;;;;5056838;28;20204;-81
2023/03/10 06:43:11;;;;;;;3.07;1.70;;;8.80;99.90;;;;;;5056188;28;20261;-83
2023/03/10 06:45:40;;;;;;;4.10;1.33;;;8.70;99.90;;;;;;5056760;28;20596;-82
2023/03/10 06:48:06;;;;;;;4.97;1.40;;;8.70;99.90;;;;;;5058291;28;20179;-80
2023/03/10 06:50:31;;;;;;;4.33;1.40;;;8.70;99.90;;;;;;5049142;28;20181;-83
2023/03/10 06:52:57;;;;;;;2.43;1.20;;;8.80;99.90;;;;;;5052864;28;20198;-84
2023/03/10 06:55:22;;;;;;;4.10;1.43;;;8.80;99.90;;;;;;5051774;28;20202;-85
2023/03/10 06:57:48;;;;;;;2.53;1.43;;;8.90;99.90;;;;;;5051689;28;20278;-83
2023/03/10 07:00:14;;;;;;;3.60;1.37;;;9.00;99.90;;;;;;5051497;28;20201;-85
2023/03/10 07:02:41;;;;;;;3.97;1.40;;;9.00;99.90;;;;;;5052393;28;20291;-83
2023/03/10 07:05:09;;;;;;;3.97;1.37;;;9.00;99.90;;;;;;5053110;28;20176;-82
2023/03/10 07:07:35;;;;;;;3.03;1.50;;;9.00;99.90;;;;;;5045108;28;20189;-84
2023/03/10 07:10:01;;;;;;;3.17;1.30;;;9.00;99.90;;;;;;5032757;28;20176;-85
2023/03/10 07:12:26;;;;;;;3.63;1.33;;;9.00;99.90;;;;;;5049634;28;20243;-84
2023/03/10 07:14:52;;;;;;;5.80;1.40;;;9.00;99.90;;;;;;5051736;28;20272;-84
2023/03/10 07:17:18;;;;;;;4.27;1.20;;;9.00;99.90;;;;;;5052646;28;20176;-83
2023/03/10 07:19:43;;;;;;;2.00;1.40;;;9.00;99.90;;;;;;5044381;28;20792;-83
2023/03/10 07:22:09;;;;;;;5.07;1.70;;;9.00;99.90;;;;;;5051419;28;20165;-82
2023/03/10 07:24:35;;;;;;;2.77;1.20;;;9.00;99.90;;;;;;5051987;28;20181;-83
2023/03/10 07:27:01;;;;;;;4.13;1.50;;;9.00;99.90;;;;;;5050971;28;20183;-85
2023/03/10 07:29:27;;;;;;;4.10;1.43;;;9.00;99.90;;;;;;5046116;28;20207;-82
2023/03/10 07:31:53;;;;;;;3.33;1.27;;;9.00;99.90;;;;;;5051255;28;20194;-83
2023/03/10 07:34:18;;;;;;;2.90;1.30;;;9.00;99.90;;;;;;5051453;28;20194;-82
2023/03/10 07:36:44;;;;;;;1.80;1.10;;;9.00;99.90;;;;;;5046459;28;20179;-83
2023/03/10 07:39:09;;;;;;;4.90;1.70;;;9.00;99.90;;;;;;5022740;28;20182;-82
2023/03/10 07:41:35;;;;;;;3.47;1.40;;;9.10;99.90;;;;;;5031980;28;20212;-82
2023/03/10 07:44:01;;;;;;;2.83;1.20;;;9.10;99.90;;;;;;5031440;28;20205;-82
2023/03/10 07:46:26;;;;;;;5.87;1.37;;;9.10;99.90;;;;;;5034755;28;20180;-81
2023/03/10 07:48:52;;;;;;;2.27;0.97;;;9.10;99.90;;;;;;5035696;28;20207;-82
2023/03/10 07:51:18;;;;;;;4.20;1.40;;;9.10;99.90;;;;;;5049169;28;20655;-82
2023/03/10 07:53:44;;;;;;;3.67;1.20;;;9.00;99.90;;;;;;5050055;28;20219;-83
2023/03/10 07:56:11;;;;;;;2.57;1.30;;;9.10;99.90;;;;;;5045069;28;20181;-82
2023/03/10 07:58:37;;;;;;;2.23;1.03;;;9.10;99.90;;;;;;5032764;28;20181;-82
2023/03/10 08:01:04;;;;;;;3.30;1.20;;;9.10;99.90;;;;;;5045830;28;20679;-83
2023/03/10 08:03:31;;;;;;;2.93;1.40;;;9.10;99.90;;;;;;5049355;28;20193;-83
2023/03/10 08:05:58;;;;;;;3.00;1.50;;;9.10;99.90;;;;;;5050742;28;20253;-83
2023/03/10 08:08:24;;;;;;;3.83;1.30;;;9.10;99.90;;;;;;5052126;28;20173;-83
2023/03/10 08:10:58;;;;;;;6.67;1.40;;;9.20;99.90;;;;;;5051974;28;20182;-83
2023/03/10 08:13:23;;;;;;;4.60;1.50;;;9.20;99.90;;;;;;5050700;28;20710;-83
2023/03/10 08:15:49;;;;;;;3.87;1.30;;;9.20;99.90;;;;;;5050818;28;20175;-83
2023/03/10 08:18:15;;;;;;;4.40;1.40;;;9.20;99.90;;;;;;5050808;28;20181;-82
2023/03/10 08:20:41;;;;;;;3.60;1.23;;;9.10;99.90;;;;;;5051866;28;20285;-83
2023/03/10 08:23:06;;;;;;;3.03;1.53;;;9.20;99.90;;;;;;5051884;28;20205;-83
2023/03/10 08:25:32;;;;;;;3.90;1.30;;;9.20;99.90;;;;;;5052084;28;20187;-83
2023/03/10 08:27:57;;;;;;;5.80;1.23;;;9.10;99.90;;;;;;5051697;28;20172;-83
2023/03/10 08:30:23;;;;;;;3.53;1.30;;;9.10;99.90;;;;;;5050461;28;20181;-83
2023/03/10 08:32:48;;;;;;;3.63;1.87;;;9.10;99.90;;;;;;5051630;28;20195;-83
2023/03/10 08:35:15;;;;;;;2.90;1.40;;;9.20;99.90;;;;;;5050890;28;20209;-83
2023/03/10 08:37:41;;;;;;;2.40;1.10;;;9.10;99.90;;;;;;5051890;28;20181;-82
2023/03/10 08:40:07;;;;;;;3.17;1.30;;;9.20;99.90;;;;;;5050211;28;20205;-83
2023/03/10 08:42:35;;;;;;;4.37;1.37;;;9.20;99.90;;;;;;5050651;28;20223;-83
2023/03/10 08:45:02;;;;;;;3.97;1.43;;;9.30;99.90;;;;;;5050369;28;20264;-83
2023/03/10 08:47:27;;;;;;;2.17;0.97;;;9.40;99.90;;;;;;5050290;28;20177;-83
2023/03/10 08:49:53;;;;;;;2.33;0.97;;;9.40;99.90;;;;;;5051836;28;20177;-83
2023/03/10 08:52:18;;;;;;;2.43;0.90;;;9.50;99.90;;;;;;5050536;28;20225;-83
2023/03/10 08:54:44;;;;;;;3.97;1.10;;;9.50;99.90;;;;;;5050193;28;20176;-83
2023/03/10 08:57:09;;;;;;;2.13;1.30;;;9.40;99.90;;;;;;5051785;28;20173;-82
2023/03/10 08:59:35;;;;;;;3.27;1.60;;;9.40;99.90;;;;;;5051445;28;20176;-79
2023/03/10 09:02:01;;;;;;;2.50;1.20;;;9.40;99.90;;;;;;5050185;28;20176;-83
2023/03/10 09:04:26;;;;;;;3.13;1.43;;;9.40;99.90;;;;;;5050801;28;20179;-83
2023/03/10 09:06:52;;;;;;;3.33;1.30;;;9.40;99.90;;;;;;5054116;28;20256;-83
2023/03/10 09:09:17;;;;;;;1.30;1.00;;;9.40;99.90;;;;;;5055136;28;20268;-83
2023/03/10 09:11:43;;;;;;;3.67;1.20;;;9.30;99.90;;;;;;5054737;28;20223;-83
2023/03/10 09:14:10;;;;;;;2.50;1.20;;;9.30;99.90;;;;;;5053700;28;20208;-83
2023/03/10 09:16:38;;;;;;;3.90;1.20;;;9.30;99.90;;;;;;5053684;28;20222;-83
2023/03/10 09:19:03;;;;;;;3.30;1.23;;;9.30;99.90;;;;;;5054245;28;20219;-83
2023/03/10 09:21:30;;;;;;;3.17;1.23;;;9.30;99.90;;;;;;5053552;28;20240;-83
2023/03/10 09:23:56;;;;;;;4.30;1.40;;;9.40;99.90;;;;;;5055325;28;20192;-83
2023/03/10 09:26:22;;;;;;;4.73;1.67;;;9.50;99.90;;;;;;5053939;28;20184;-83
2023/03/10 09:28:49;;;;;;;2.80;1.40;;;9.70;99.90;;;;;;5053565;28;20169;-83
2023/03/10 09:31:21;;;;;;;6.03;2.13;;;9.70;99.90;;;;;;5054554;28;20184;-83
2023/03/10 09:33:47;;;;;;;4.43;1.43;;;9.80;99.90;;;;;;5053293;28;20189;-83
2023/03/10 09:36:13;;;;;;;8.50;1.83;;;9.80;99.90;;;;;;5053473;28;20237;-84
2023/03/10 09:38:40;;;;;;;5.63;1.77;;;9.80;99.90;;;;;;5053500;28;20223;-83
2023/03/10 09:41:34;;;;;;;6.70;1.80;;;9.70;99.90;;;;;;5054474;28;20678;-83
2023/03/10 09:44:11;;;;;;;3.93;1.47;;;9.70;99.90;;;;;;5053197;28;20193;-83
2023/03/10 09:46:49;;;;;;;3.87;1.30;;;9.80;99.90;;;;;;5054637;28;20174;-83
2023/03/10 09:49:29;;;;;;;3.83;1.50;;;9.90;99.90;;;;;;5053060;28;20169;-83
2023/03/10 09:51:55;;;;;;;3.57;1.53;;;9.90;99.90;;;;;;5052784;28;20215;-83
2023/03/10 09:55:00;;;;;;;5.47;1.40;;;9.90;99.90;;;;;;5053070;28;20174;-83
2023/03/10 09:57:28;;;;;;;4.73;1.43;;;9.80;99.90;;;;;;5031918;28;20174;-83
2023/03/10 10:00:00;;;;;;;3.00;1.70;;;9.80;99.90;;;;;;5046130;28;20237;-83
2023/03/10 10:02:34;;;;;;;5.47;2.60;;;9.70;99.90;;;;;;5052772;28;20622;-83
2023/03/10 10:05:05;;;;;;;3.63;1.40;;;9.50;99.90;;;;;;5054142;28;20271;-83
2023/03/10 10:07:45;;;;;;;4.77;1.60;;;9.40;99.90;;;;;;5054040;28;20188;-83
2023/03/10 10:10:13;;;;;;;3.70;2.20;;;9.30;99.90;;;;;;5052683;28;20183;-83
2023/03/10 10:12:41;;;;;;;4.60;2.00;;;9.20;99.90;;;;;;5052541;28;20211;-83
2023/03/10 10:15:15;;;;;;;2.53;1.50;;;9.20;99.90;;;;;;5052721;28;20171;-84
2023/03/10 10:18:06;;;;;;;4.10;1.50;;;9.00;99.90;;;;;;5052062;28;20176;-84
2023/03/10 10:20:37;;;;;;;3.37;1.33;;;9.00;99.90;;;;;;5052409;28;20231;-83
2023/03/10 10:23:13;;;;;;;5.13;1.40;;;9.00;99.90;;;;;;5052503;28;20258;-81
2023/03/10 10:25:39;;;;;;;3.93;1.37;;;9.00;99.90;;;;;;5052934;28;20174;-83
2023/03/10 10:28:24;;;;;;;3.03;1.40;;;9.00;99.90;;;;;;5052342;28;20180;-82
2023/03/10 10:30:49;;;;;;;3.57;1.37;;;9.00;99.90;;;;;;5052327;28;20181;-83
2023/03/10 10:33:15;;;;;;;2.33;1.60;;;8.90;99.90;;;;;;5052149;28;20269;-83
2023/03/10 10:35:53;;;;;;;3.03;1.70;;;8.90;99.90;;;;;;5053290;28;20267;-81
2023/03/10 10:38:30;;;;;;;3.27;1.63;;;9.00;99.90;;;;;;5051952;28;20647;-83
2023/03/10 10:41:03;;;;;;;5.00;2.57;;;9.10;99.90;;;;;;5051987;28;20211;-83
2023/03/10 10:43:29;;;;;;;4.10;2.10;;;9.10;99.90;;;;;;5052259;28;20724;-83
2023/03/10 10:46:05;;;;;;;4.87;1.77;;;9.10;99.90;;;;;;5052389;28;20173;-82
2023/03/10 10:49:14;;;;;;;3.33;1.33;;;9.10;99.90;;;;;;5052805;28;20203;-83
2023/03/10 10:51:39;;;;;;;3.47;1.63;;;9.10;99.90;;;;;;5061272;28;20181;-82
2023/03/10 10:54:26;;;;;;;4.70;1.70;;;9.40;99.90;;;;;;5054195;28;20279;-82
2023/03/10 10:56:54;;;;;;;1.93;1.40;;;9.60;99.90;;;;;;5052503;28;20230;-83
2023/03/10 10:59:34;;;;;;;4.77;2.50;;;9.90;99.90;;;;;;5052959;28;20518;-83
2023/03/10 11:02:17;;;;;;;2.30;1.20;;;10.10;99.90;;;;;;5045760;28;20186;-81
2023/03/10 11:04:45;;;;;;;3.63;1.20;;;10.40;99.90;;;;;;5019368;28;20178;-83
2023/03/10 11:07:31;;;;;;;3.33;1.40;;;10.60;99.90;;;;;;5051085;28;20223;-83
2023/03/10 11:09:57;;;;;;;2.30;1.00;;;10.80;99.90;;;;;;5052935;28;20717;-82
2023/03/10 11:15:08;;;;;;;2.30;0.93;;;11.10;99.90;;;;;;5040238;28;20225;-84
2023/03/10 11:18:10;;;;;;;1.73;1.60;;;11.20;99.90;;;;;;5038732;28;20178;-83
2023/03/10 11:20:45;;;;;;;3.20;1.10;;;11.50;99.90;;;;;;5030171;28;20212;-82
2023/03/10 11:23:26;;;;;;;4.10;1.40;;;11.30;99.90;;;;;;5036000;28;20213;-82
2023/03/10 11:26:05;;;;;;;3.73;1.20;;;11.10;99.90;;;;;;5015723;28;20209;-81
2023/03/10 11:28:45;;;;;;;2.30;1.10;;;10.90;99.90;;;;;;5015325;28;20182;-81
2023/03/10 11:31:41;;;;;;;1.43;0.90;;;10.70;99.90;;;;;;5032573;28;20185;-81
2023/03/10 11:34:29;;;;;;;2.23;1.03;;;10.50;99.90;;;;;;5015362;28;20206;-82
2023/03/10 11:37:14;;;;;;;2.77;1.30;;;10.40;99.90;;;;;;5034777;28;20200;-80
2023/03/10 11:39:51;;;;;;;1.95;0.85;;;10.20;99.90;;;;;;5035293;28;20178;-82
2023/03/10 11:42:54;;;;;;;2.80;1.00;;;10.40;99.90;;;;;;5023550;28;20180;-81
2023/03/10 11:45:52;;;;;;;2.23;0.90;;;10.60;99.90;;;;;;5032770;28;20181;-81
2023/03/10 11:48:37;;;;;;;2.67;1.00;;;10.90;99.90;;;;;;5033374;28;20178;-81
2023/03/10 11:51:04;;;;;;;4.20;1.43;;;11.20;99.90;;;;;;5032811;28;20185;-81
2023/03/10 11:53:50;;;;;;;4.23;1.10;;;11.20;99.90;;;;;;5018036;28;20213;-82
2023/03/10 11:56:19;;;;;;;2.43;1.47;;;11.00;99.90;;;;;;5022955;28;20182;-82
2023/03/10 11:58:56;;;;;;;3.60;1.10;;;10.70;99.90;;;;;;5042240;28;20205;-80
2023/03/10 12:01:33;;;;;;;2.10;0.90;;;10.50;99.90;;;;;;5041590;28;20211;-79
2023/03/10 12:04:26;;;;;;;1.97;0.90;;;10.30;99.90;;;;;;5039549;28;20626;-80
2023/03/10 12:07:08;;;;;;;4.77;1.60;;;10.10;99.90;;;;;;5039249;28;20178;-80
2023/03/10 12:09:42;;;;;;;2.83;0.90;;;10.10;99.90;;;;;;5040056;28;20719;-81
2023/03/10 12:12:24;;;;;;;3.70;1.07;;;10.00;99.90;;;;;;5038773;28;20185;-81
2023/03/10 12:14:50;;;;;;;3.27;1.33;;;9.90;99.90;;;;;;5040712;28;20186;-81
2023/03/10 12:17:17;;;;;;;1.90;1.10;;;9.80;99.90;;;;;;5039001;28;20193;-81
2023/03/10 12:20:13;;;;;;;2.80;1.00;;;9.70;99.90;;;;;;5038564;28;20184;-80
2023/03/10 12:22:49;;;;;;;2.27;1.00;;;9.70;99.90;;;;;;5037719;28;20175;-80
2023/03/10 12:25:27;;;;;;;2.17;0.90;;;9.70;99.90;;;;;;5037614;28;20174;-82
2023/03/10 12:28:17;;;;;;;1.37;0.93;;;9.80;99.90;;;;;;5038183;28;20702;-80
2023/03/10 12:31:01;;;;;;;2.97;1.10;;;10.10;99.90;;;;;;5018919;28;20649;-81
2023/03/10 12:33:30;;;;;;;2.57;1.03;;;10.60;99.90;;;;;;5037801;28;20221;-81
2023/03/10 12:36:08;;;;;;;2.50;0.97;;;11.20;99.90;;;;;;5028035;28;20683;-80
2023/03/10 12:38:47;;;;;;;2.43;1.30;;;11.40;99.90;;;;;;5038395;28;20193;-80
2023/03/10 12:41:58;;;;;;;1.80;1.37;;;11.30;99.90;;;;;;5039025;28;20208;-80
2023/03/10 12:44:46;;;;;;;1.50;1.00;;;11.40;99.90;;;;;;5000424;28;20692;-80
2023/03/10 12:47:34;;;;;;;2.83;1.10;;;11.60;99.90;;;;;;5027248;28;20198;-83
2023/03/10 12:50:05;;;;;;;1.37;1.20;;;11.60;99.90;;;;;;5020677;28;20645;-81
2023/03/10 12:52:43;;;;;;;1.70;1.00;;;11.40;99.90;;;;;;5021270;28;20209;-81
2023/03/10 12:55:15;;;;;;;2.20;1.00;;;11.20;99.90;;;;;;5038669;28;20182;-81
2023/03/10 12:57:49;;;;;;;2.03;0.90;;;11.10;99.90;;;;;;5022931;28;20224;-80
2023/03/10 13:00:18;;;;;;;1.90;0.90;;;11.10;99.90;;;;;;5038997;28;20206;-82
2023/03/10 13:02:49;;;;;;;1.03;0.60;;;10.90;99.90;;;;;;5038001;28;20636;-81
2023/03/10 13:05:55;;;;;;;2.03;0.90;;;10.80;99.90;;;;;;5038230;28;20224;-81
2023/03/10 13:08:24;;;;;;;1.07;0.73;;;10.70;99.90;;;;;;5024647;28;20170;-80
2023/03/10 13:10:55;;;;;;;1.17;0.73;;;10.70;99.90;;;;;;5021243;28;20204;-84